sensor_id;sensor_type;location;lat;lon;timestamp;P1;durP1;ratioP1;P2;durP2;ratioP2
10116;SDS011;5098;48.792;9.012;2022-08-19T00:01:45;17.90;;;16.30;;
10116;SDS011;5098;48.792;9.012;2022-08-19T00:04:12;17.63;;;15.73;;
10116;SDS011;5098;48.792;9.012;2022-08-19T00:06:40;17.43;;;15.70;;
10116;SDS011;5098;48.792;9.012;2022-08-19T00:09:07;18.10;;;16.30;;
10116;SDS011;5098;48.792;9.012;2022-08-19T00:11:34;16.97;;;15.37;;
10116;SDS011;5098;48.792;9.012;2022-08-19T00:14:01;18.73;;;16.80;;
10116;SDS011;5098;48.792;9.012;2022-08-19T00:16:28;18.47;;;16.43;;
10116;SDS011;5098;48.792;9.012;2022-08-19T00:18:54;19.73;;;17.73;;
10116;SDS011;5098;48.792;9.012;2022-08-19T00:21:20;18.63;;;16.83;;
10116;SDS011;5098;48.792;9.012;2022-08-19T00:23:46;18.23;;;16.43;;
10116;SDS011;5098;48.792;9.012;2022-08-19T00:26:13;17.50;;;15.73;;
10116;SDS011;5098;48.792;9.012;2022-08-19T00:28:39;18.70;;;16.80;;
10116;SDS011;5098;48.792;9.012;2022-08-19T00:31:06;18.43;;;15.90;;
10116;SDS011;5098;48.792;9.012;2022-08-19T00:33:32;18.53;;;16.67;;
10116;SDS011;5098;48.792;9.012;2022-08-19T00:35:59;18.43;;;16.57;;
10116;SDS011;5098;48.792;9.012;2022-08-19T00:38:25;19.13;;;17.10;;
10116;SDS011;5098;48.792;9.012;2022-08-19T00:40:51;18.40;;;16.27;;
10116;SDS011;5098;48.792;9.012;2022-08-19T00:43:18;19.23;;;17.30;;
10116;SDS011;5098;48.792;9.012;2022-08-19T00:45:45;19.07;;;17.27;;
10116;SDS011;5098;48.792;9.012;2022-08-19T00:48:11;19.20;;;17.23;;
10116;SDS011;5098;48.792;9.012;2022-08-19T00:50:38;21.23;;;17.70;;
10116;SDS011;5098;48.792;9.012;2022-08-19T00:53:05;20.03;;;18.00;;
10116;SDS011;5098;48.792;9.012;2022-08-19T00:55:32;18.80;;;16.90;;
10116;SDS011;5098;48.792;9.012;2022-08-19T00:58:00;19.47;;;17.70;;
10116;SDS011;5098;48.792;9.012;2022-08-19T01:00:27;21.43;;;19.27;;
10116;SDS011;5098;48.792;9.012;2022-08-19T01:02:53;19.10;;;17.20;;
10116;SDS011;5098;48.792;9.012;2022-08-19T01:05:21;19.47;;;17.60;;
10116;SDS011;5098;48.792;9.012;2022-08-19T01:07:48;21.10;;;19.03;;
10116;SDS011;5098;48.792;9.012;2022-08-19T01:10:17;19.20;;;17.30;;
10116;SDS011;5098;48.792;9.012;2022-08-19T01:12:44;19.40;;;17.37;;
10116;SDS011;5098;48.792;9.012;2022-08-19T01:15:11;20.13;;;18.13;;
10116;SDS011;5098;48.792;9.012;2022-08-19T01:17:38;19.77;;;17.77;;
10116;SDS011;5098;48.792;9.012;2022-08-19T01:20:05;22.00;;;19.70;;
10116;SDS011;5098;48.792;9.012;2022-08-19T01:25:05;21.30;;;19.10;;
10116;SDS011;5098;48.792;9.012;2022-08-19T01:27:45;21.47;;;19.47;;
10116;SDS011;5098;48.792;9.012;2022-08-19T01:30:14;23.60;;;19.57;;
10116;SDS011;5098;48.792;9.012;2022-08-19T01:32:40;23.03;;;20.10;;
10116;SDS011;5098;48.792;9.012;2022-08-19T01:35:07;21.27;;;19.07;;
10116;SDS011;5098;48.792;9.012;2022-08-19T01:37:50;21.50;;;19.40;;
10116;SDS011;5098;48.792;9.012;2022-08-19T01:40:17;21.93;;;19.30;;
10116;SDS011;5098;48.792;9.012;2022-08-19T01:42:45;22.50;;;20.17;;
10116;SDS011;5098;48.792;9.012;2022-08-19T01:45:12;21.47;;;19.17;;
10116;SDS011;5098;48.792;9.012;2022-08-19T01:47:38;21.67;;;19.47;;
10116;SDS011;5098;48.792;9.012;2022-08-19T01:50:05;21.57;;;19.47;;
10116;SDS011;5098;48.792;9.012;2022-08-19T01:52:32;23.33;;;20.93;;
10116;SDS011;5098;48.792;9.012;2022-08-19T01:55:00;23.70;;;21.30;;
10116;SDS011;5098;48.792;9.012;2022-08-19T01:57:26;21.13;;;18.93;;
10116;SDS011;5098;48.792;9.012;2022-08-19T01:59:52;23.33;;;20.13;;
10116;SDS011;5098;48.792;9.012;2022-08-19T02:02:18;24.57;;;21.43;;
10116;SDS011;5098;48.792;9.012;2022-08-19T02:04:45;23.00;;;19.93;;
10116;SDS011;5098;48.792;9.012;2022-08-19T02:07:11;23.50;;;21.20;;
10116;SDS011;5098;48.792;9.012;2022-08-19T02:09:37;22.97;;;20.53;;
10116;SDS011;5098;48.792;9.012;2022-08-19T02:12:04;23.90;;;21.30;;
10116;SDS011;5098;48.792;9.012;2022-08-19T02:14:30;23.93;;;21.53;;
10116;SDS011;5098;48.792;9.012;2022-08-19T02:16:56;23.53;;;19.60;;
10116;SDS011;5098;48.792;9.012;2022-08-19T02:19:22;21.97;;;19.67;;
10116;SDS011;5098;48.792;9.012;2022-08-19T02:21:48;22.87;;;20.57;;
10116;SDS011;5098;48.792;9.012;2022-08-19T02:24:14;25.27;;;22.70;;
10116;SDS011;5098;48.792;9.012;2022-08-19T02:26:40;23.53;;;21.20;;
10116;SDS011;5098;48.792;9.012;2022-08-19T02:29:07;23.93;;;21.63;;
10116;SDS011;5098;48.792;9.012;2022-08-19T02:31:33;23.33;;;20.97;;
10116;SDS011;5098;48.792;9.012;2022-08-19T02:33:59;24.00;;;21.50;;
10116;SDS011;5098;48.792;9.012;2022-08-19T02:36:26;23.80;;;21.40;;
10116;SDS011;5098;48.792;9.012;2022-08-19T02:38:52;22.67;;;20.40;;
10116;SDS011;5098;48.792;9.012;2022-08-19T02:41:20;22.93;;;20.53;;
10116;SDS011;5098;48.792;9.012;2022-08-19T02:43:47;23.80;;;21.20;;
10116;SDS011;5098;48.792;9.012;2022-08-19T02:46:18;26.50;;;22.50;;
10116;SDS011;5098;48.792;9.012;2022-08-19T02:48:46;24.97;;;21.77;;
10116;SDS011;5098;48.792;9.012;2022-08-19T02:51:16;25.40;;;23.00;;
10116;SDS011;5098;48.792;9.012;2022-08-19T02:53:43;26.87;;;24.17;;
10116;SDS011;5098;48.792;9.012;2022-08-19T02:56:09;25.20;;;22.67;;
10116;SDS011;5098;48.792;9.012;2022-08-19T02:58:35;24.87;;;22.37;;
10116;SDS011;5098;48.792;9.012;2022-08-19T03:01:01;26.53;;;24.00;;
10116;SDS011;5098;48.792;9.012;2022-08-19T03:03:27;25.73;;;23.03;;
10116;SDS011;5098;48.792;9.012;2022-08-19T03:06:04;26.53;;;23.73;;
10116;SDS011;5098;48.792;9.012;2022-08-19T03:08:30;26.20;;;23.47;;
10116;SDS011;5098;48.792;9.012;2022-08-19T03:10:56;25.37;;;22.87;;
10116;SDS011;5098;48.792;9.012;2022-08-19T03:13:22;25.40;;;22.80;;
10116;SDS011;5098;48.792;9.012;2022-08-19T03:15:49;25.97;;;23.27;;
10116;SDS011;5098;48.792;9.012;2022-08-19T03:18:15;28.00;;;25.00;;
10116;SDS011;5098;48.792;9.012;2022-08-19T03:20:43;27.27;;;24.47;;
10116;SDS011;5098;48.792;9.012;2022-08-19T03:23:10;26.20;;;23.57;;
10116;SDS011;5098;48.792;9.012;2022-08-19T03:25:41;25.23;;;22.83;;
10116;SDS011;5098;48.792;9.012;2022-08-19T03:28:08;26.93;;;24.13;;
10116;SDS011;5098;48.792;9.012;2022-08-19T03:30:34;28.27;;;25.30;;
10116;SDS011;5098;48.792;9.012;2022-08-19T03:33:00;25.30;;;22.57;;
10116;SDS011;5098;48.792;9.012;2022-08-19T03:35:27;25.70;;;23.20;;
10116;SDS011;5098;48.792;9.012;2022-08-19T03:37:53;27.50;;;24.43;;
10116;SDS011;5098;48.792;9.012;2022-08-19T03:40:19;27.87;;;25.23;;
10116;SDS011;5098;48.792;9.012;2022-08-19T03:42:45;25.00;;;22.53;;
10116;SDS011;5098;48.792;9.012;2022-08-19T03:45:11;27.80;;;25.10;;
10116;SDS011;5098;48.792;9.012;2022-08-19T03:47:38;26.30;;;23.70;;
10116;SDS011;5098;48.792;9.012;2022-08-19T03:50:04;28.97;;;26.03;;
10116;SDS011;5098;48.792;9.012;2022-08-19T03:52:30;27.27;;;24.30;;
10116;SDS011;5098;48.792;9.012;2022-08-19T03:54:57;27.93;;;25.03;;
10116;SDS011;5098;48.792;9.012;2022-08-19T03:57:23;28.40;;;25.60;;
10116;SDS011;5098;48.792;9.012;2022-08-19T03:59:49;30.47;;;27.30;;
10116;SDS011;5098;48.792;9.012;2022-08-19T04:02:15;28.47;;;25.57;;
10116;SDS011;5098;48.792;9.012;2022-08-19T04:04:42;31.43;;;25.80;;
10116;SDS011;5098;48.792;9.012;2022-08-19T04:07:09;29.33;;;26.30;;
10116;SDS011;5098;48.792;9.012;2022-08-19T04:09:35;29.53;;;24.97;;
10116;SDS011;5098;48.792;9.012;2022-08-19T04:12:02;27.60;;;24.80;;
10116;SDS011;5098;48.792;9.012;2022-08-19T04:14:30;28.70;;;25.70;;
10116;SDS011;5098;48.792;9.012;2022-08-19T04:16:57;28.07;;;25.30;;
10116;SDS011;5098;48.792;9.012;2022-08-19T04:19:23;28.73;;;25.53;;
10116;SDS011;5098;48.792;9.012;2022-08-19T04:21:50;28.40;;;25.60;;
10116;SDS011;5098;48.792;9.012;2022-08-19T04:24:17;29.70;;;26.60;;
10116;SDS011;5098;48.792;9.012;2022-08-19T04:26:43;27.33;;;24.53;;
10116;SDS011;5098;48.792;9.012;2022-08-19T04:29:11;27.67;;;24.90;;
10116;SDS011;5098;48.792;9.012;2022-08-19T04:31:37;29.97;;;26.97;;
10116;SDS011;5098;48.792;9.012;2022-08-19T04:34:05;29.50;;;26.07;;
10116;SDS011;5098;48.792;9.012;2022-08-19T04:36:33;28.40;;;25.37;;
10116;SDS011;5098;48.792;9.012;2022-08-19T04:39:02;29.80;;;26.90;;
10116;SDS011;5098;48.792;9.012;2022-08-19T04:41:28;30.17;;;27.07;;
10116;SDS011;5098;48.792;9.012;2022-08-19T04:44:13;28.43;;;25.63;;
10116;SDS011;5098;48.792;9.012;2022-08-19T04:46:43;29.60;;;26.77;;
10116;SDS011;5098;48.792;9.012;2022-08-19T04:49:09;34.37;;;28.33;;
10116;SDS011;5098;48.792;9.012;2022-08-19T04:51:36;29.07;;;26.20;;
10116;SDS011;5098;48.792;9.012;2022-08-19T04:54:02;30.57;;;27.47;;
10116;SDS011;5098;48.792;9.012;2022-08-19T04:56:29;31.47;;;28.07;;
10116;SDS011;5098;48.792;9.012;2022-08-19T04:58:55;29.73;;;26.17;;
10116;SDS011;5098;48.792;9.012;2022-08-19T05:01:24;30.33;;;27.23;;
10116;SDS011;5098;48.792;9.012;2022-08-19T05:03:50;32.33;;;29.13;;
10116;SDS011;5098;48.792;9.012;2022-08-19T05:06:17;32.20;;;29.10;;
10116;SDS011;5098;48.792;9.012;2022-08-19T05:08:44;29.70;;;26.60;;
10116;SDS011;5098;48.792;9.012;2022-08-19T05:11:11;30.97;;;27.87;;
10116;SDS011;5098;48.792;9.012;2022-08-19T05:13:37;30.43;;;27.50;;
10116;SDS011;5098;48.792;9.012;2022-08-19T05:16:04;29.00;;;26.00;;
10116;SDS011;5098;48.792;9.012;2022-08-19T05:18:30;31.50;;;28.23;;
10116;SDS011;5098;48.792;9.012;2022-08-19T05:21:16;28.60;;;25.80;;
10116;SDS011;5098;48.792;9.012;2022-08-19T05:24:02;30.17;;;26.90;;
10116;SDS011;5098;48.792;9.012;2022-08-19T05:26:28;30.03;;;26.93;;
10116;SDS011;5098;48.792;9.012;2022-08-19T05:28:54;29.03;;;26.00;;
10116;SDS011;5098;48.792;9.012;2022-08-19T05:31:21;30.73;;;27.60;;
10116;SDS011;5098;48.792;9.012;2022-08-19T05:33:47;31.33;;;28.10;;
10116;SDS011;5098;48.792;9.012;2022-08-19T05:36:15;28.43;;;25.73;;
10116;SDS011;5098;48.792;9.012;2022-08-19T05:38:41;31.43;;;28.10;;
10116;SDS011;5098;48.792;9.012;2022-08-19T05:41:11;29.63;;;26.63;;
10116;SDS011;5098;48.792;9.012;2022-08-19T05:43:37;28.80;;;25.77;;
10116;SDS011;5098;48.792;9.012;2022-08-19T05:46:04;30.47;;;27.30;;
10116;SDS011;5098;48.792;9.012;2022-08-19T05:48:31;29.80;;;26.70;;
10116;SDS011;5098;48.792;9.012;2022-08-19T05:50:57;28.27;;;25.33;;
10116;SDS011;5098;48.792;9.012;2022-08-19T05:53:24;28.67;;;25.80;;
10116;SDS011;5098;48.792;9.012;2022-08-19T05:55:50;28.77;;;25.97;;
10116;SDS011;5098;48.792;9.012;2022-08-19T05:58:16;29.87;;;26.67;;
10116;SDS011;5098;48.792;9.012;2022-08-19T06:00:43;30.83;;;27.57;;
10116;SDS011;5098;48.792;9.012;2022-08-19T06:03:10;27.27;;;24.47;;
10116;SDS011;5098;48.792;9.012;2022-08-19T06:05:36;27.93;;;25.10;;
10116;SDS011;5098;48.792;9.012;2022-08-19T06:08:02;30.53;;;27.57;;
10116;SDS011;5098;48.792;9.012;2022-08-19T06:10:29;30.00;;;26.70;;
10116;SDS011;5098;48.792;9.012;2022-08-19T06:12:55;27.90;;;25.07;;
10116;SDS011;5098;48.792;9.012;2022-08-19T06:15:21;31.10;;;26.43;;
10116;SDS011;5098;48.792;9.012;2022-08-19T06:17:50;30.23;;;27.40;;
10116;SDS011;5098;48.792;9.012;2022-08-19T06:20:16;29.63;;;26.80;;
10116;SDS011;5098;48.792;9.012;2022-08-19T06:22:45;28.73;;;25.73;;
10116;SDS011;5098;48.792;9.012;2022-08-19T06:25:12;30.40;;;27.40;;
10116;SDS011;5098;48.792;9.012;2022-08-19T06:27:39;30.80;;;26.80;;
10116;SDS011;5098;48.792;9.012;2022-08-19T06:30:06;27.77;;;24.87;;
10116;SDS011;5098;48.792;9.012;2022-08-19T06:32:32;27.20;;;24.50;;
10116;SDS011;5098;48.792;9.012;2022-08-19T06:34:58;30.17;;;26.23;;
10116;SDS011;5098;48.792;9.012;2022-08-19T06:37:24;29.93;;;26.97;;
10116;SDS011;5098;48.792;9.012;2022-08-19T06:39:50;29.70;;;26.70;;
10116;SDS011;5098;48.792;9.012;2022-08-19T06:42:16;28.17;;;25.20;;
10116;SDS011;5098;48.792;9.012;2022-08-19T06:44:44;27.60;;;24.73;;
10116;SDS011;5098;48.792;9.012;2022-08-19T06:47:13;26.77;;;24.17;;
10116;SDS011;5098;48.792;9.012;2022-08-19T06:49:40;26.83;;;24.03;;
10116;SDS011;5098;48.792;9.012;2022-08-19T06:52:06;27.90;;;25.00;;
10116;SDS011;5098;48.792;9.012;2022-08-19T06:54:32;27.07;;;24.40;;
10116;SDS011;5098;48.792;9.012;2022-08-19T06:56:59;27.23;;;24.53;;
10116;SDS011;5098;48.792;9.012;2022-08-19T06:59:29;26.17;;;23.47;;
10116;SDS011;5098;48.792;9.012;2022-08-19T07:01:57;25.27;;;22.97;;
10116;SDS011;5098;48.792;9.012;2022-08-19T07:04:28;25.40;;;22.80;;
10116;SDS011;5098;48.792;9.012;2022-08-19T07:07:00;26.80;;;24.30;;
10116;SDS011;5098;48.792;9.012;2022-08-19T07:09:27;24.07;;;21.67;;
10116;SDS011;5098;48.792;9.012;2022-08-19T07:11:53;26.03;;;23.27;;
10116;SDS011;5098;48.792;9.012;2022-08-19T07:14:21;25.83;;;23.23;;
10116;SDS011;5098;48.792;9.012;2022-08-19T07:16:48;25.40;;;22.83;;
10116;SDS011;5098;48.792;9.012;2022-08-19T07:19:15;25.63;;;23.13;;
10116;SDS011;5098;48.792;9.012;2022-08-19T07:21:41;25.17;;;22.73;;
10116;SDS011;5098;48.792;9.012;2022-08-19T07:24:08;24.27;;;22.00;;
10116;SDS011;5098;48.792;9.012;2022-08-19T07:26:37;23.00;;;20.70;;
10116;SDS011;5098;48.792;9.012;2022-08-19T07:29:04;22.83;;;20.60;;
10116;SDS011;5098;48.792;9.012;2022-08-19T07:31:31;24.43;;;21.23;;
10116;SDS011;5098;48.792;9.012;2022-08-19T07:34:02;24.70;;;22.40;;
10116;SDS011;5098;48.792;9.012;2022-08-19T07:36:31;25.20;;;22.70;;
10116;SDS011;5098;48.792;9.012;2022-08-19T07:38:58;25.23;;;22.60;;
10116;SDS011;5098;48.792;9.012;2022-08-19T07:41:25;27.50;;;21.90;;
10116;SDS011;5098;48.792;9.012;2022-08-19T07:43:53;23.50;;;21.23;;
10116;SDS011;5098;48.792;9.012;2022-08-19T07:46:20;23.17;;;20.77;;
10116;SDS011;5098;48.792;9.012;2022-08-19T07:48:46;22.53;;;20.33;;
10116;SDS011;5098;48.792;9.012;2022-08-19T07:51:14;23.97;;;21.63;;
10116;SDS011;5098;48.792;9.012;2022-08-19T07:53:41;25.00;;;22.63;;
10116;SDS011;5098;48.792;9.012;2022-08-19T07:56:09;27.00;;;23.57;;
10116;SDS011;5098;48.792;9.012;2022-08-19T07:58:38;25.47;;;22.77;;
10116;SDS011;5098;48.792;9.012;2022-08-19T08:01:05;26.13;;;23.70;;
10116;SDS011;5098;48.792;9.012;2022-08-19T08:03:32;23.77;;;21.37;;
10116;SDS011;5098;48.792;9.012;2022-08-19T08:06:16;24.17;;;21.80;;
10116;SDS011;5098;48.792;9.012;2022-08-19T08:09:03;24.77;;;22.27;;
10116;SDS011;5098;48.792;9.012;2022-08-19T08:11:50;22.77;;;20.23;;
10116;SDS011;5098;48.792;9.012;2022-08-19T08:14:18;23.37;;;20.00;;
10116;SDS011;5098;48.792;9.012;2022-08-19T08:16:44;23.90;;;21.10;;
10116;SDS011;5098;48.792;9.012;2022-08-19T08:19:11;21.50;;;19.50;;
10116;SDS011;5098;48.792;9.012;2022-08-19T08:21:40;24.87;;;22.43;;
10116;SDS011;5098;48.792;9.012;2022-08-19T08:24:06;20.97;;;19.07;;
10116;SDS011;5098;48.792;9.012;2022-08-19T08:26:32;22.67;;;20.50;;
10116;SDS011;5098;48.792;9.012;2022-08-19T08:28:58;21.83;;;19.60;;
10116;SDS011;5098;48.792;9.012;2022-08-19T08:31:24;22.13;;;20.13;;
10116;SDS011;5098;48.792;9.012;2022-08-19T08:33:50;22.87;;;20.60;;
10116;SDS011;5098;48.792;9.012;2022-08-19T08:36:16;21.70;;;19.47;;
10116;SDS011;5098;48.792;9.012;2022-08-19T08:38:43;21.73;;;19.53;;
10116;SDS011;5098;48.792;9.012;2022-08-19T08:41:25;22.50;;;20.33;;
10116;SDS011;5098;48.792;9.012;2022-08-19T08:43:53;20.47;;;18.43;;
10116;SDS011;5098;48.792;9.012;2022-08-19T08:46:55;21.33;;;19.33;;
10116;SDS011;5098;48.792;9.012;2022-08-19T08:51:43;20.33;;;18.53;;
10116;SDS011;5098;48.792;9.012;2022-08-19T08:54:11;21.93;;;19.47;;
10116;SDS011;5098;48.792;9.012;2022-08-19T08:56:41;22.57;;;20.17;;
10116;SDS011;5098;48.792;9.012;2022-08-19T08:59:10;22.00;;;19.87;;
10116;SDS011;5098;48.792;9.012;2022-08-19T09:01:38;20.17;;;17.93;;
10116;SDS011;5098;48.792;9.012;2022-08-19T09:04:05;20.70;;;18.60;;
10116;SDS011;5098;48.792;9.012;2022-08-19T09:06:36;22.10;;;19.80;;
10116;SDS011;5098;48.792;9.012;2022-08-19T09:09:04;20.30;;;18.30;;
10116;SDS011;5098;48.792;9.012;2022-08-19T09:16:36;20.23;;;18.37;;
10116;SDS011;5098;48.792;9.012;2022-08-19T09:19:05;20.50;;;17.93;;
10116;SDS011;5098;48.792;9.012;2022-08-19T09:21:32;20.00;;;18.00;;
10116;SDS011;5098;48.792;9.012;2022-08-19T09:23:59;21.30;;;19.20;;
10116;SDS011;5098;48.792;9.012;2022-08-19T09:26:25;19.93;;;17.80;;
10116;SDS011;5098;48.792;9.012;2022-08-19T09:28:52;20.50;;;18.60;;
10116;SDS011;5098;48.792;9.012;2022-08-19T09:31:20;22.33;;;20.30;;
10116;SDS011;5098;48.792;9.012;2022-08-19T09:33:47;22.60;;;20.47;;
10116;SDS011;5098;48.792;9.012;2022-08-19T09:36:15;19.33;;;17.40;;
10116;SDS011;5098;48.792;9.012;2022-08-19T09:38:41;21.13;;;18.40;;
10116;SDS011;5098;48.792;9.012;2022-08-19T09:41:10;19.63;;;17.80;;
10116;SDS011;5098;48.792;9.012;2022-08-19T09:43:38;21.37;;;19.47;;
10116;SDS011;5098;48.792;9.012;2022-08-19T09:46:05;18.93;;;17.23;;
10116;SDS011;5098;48.792;9.012;2022-08-19T09:48:31;17.77;;;15.97;;
10116;SDS011;5098;48.792;9.012;2022-08-19T09:53:30;19.07;;;17.30;;
10116;SDS011;5098;48.792;9.012;2022-08-19T09:55:56;20.27;;;17.37;;
10116;SDS011;5098;48.792;9.012;2022-08-19T09:58:22;18.63;;;16.53;;
10116;SDS011;5098;48.792;9.012;2022-08-19T10:00:52;17.20;;;15.50;;
10116;SDS011;5098;48.792;9.012;2022-08-19T10:03:19;18.53;;;15.10;;
10116;SDS011;5098;48.792;9.012;2022-08-19T10:05:45;18.03;;;16.37;;
10116;SDS011;5098;48.792;9.012;2022-08-19T10:08:15;16.90;;;15.27;;
10116;SDS011;5098;48.792;9.012;2022-08-19T10:10:41;18.10;;;16.10;;
10116;SDS011;5098;48.792;9.012;2022-08-19T10:13:11;16.73;;;15.13;;
10116;SDS011;5098;48.792;9.012;2022-08-19T10:15:37;15.30;;;13.90;;
10116;SDS011;5098;48.792;9.012;2022-08-19T10:18:06;16.23;;;14.63;;
10116;SDS011;5098;48.792;9.012;2022-08-19T10:20:33;16.60;;;14.90;;
10116;SDS011;5098;48.792;9.012;2022-08-19T10:23:01;16.27;;;14.87;;
10116;SDS011;5098;48.792;9.012;2022-08-19T10:25:27;17.57;;;15.63;;
10116;SDS011;5098;48.792;9.012;2022-08-19T10:27:53;14.43;;;12.97;;
10116;SDS011;5098;48.792;9.012;2022-08-19T10:30:20;15.20;;;14.00;;
10116;SDS011;5098;48.792;9.012;2022-08-19T10:32:46;16.83;;;15.17;;
10116;SDS011;5098;48.792;9.012;2022-08-19T10:35:12;14.50;;;13.20;;
10116;SDS011;5098;48.792;9.012;2022-08-19T10:37:39;14.23;;;12.93;;
10116;SDS011;5098;48.792;9.012;2022-08-19T10:40:06;14.67;;;13.40;;
10116;SDS011;5098;48.792;9.012;2022-08-19T10:42:33;13.17;;;11.87;;
10116;SDS011;5098;48.792;9.012;2022-08-19T10:45:00;14.87;;;13.57;;
10116;SDS011;5098;48.792;9.012;2022-08-19T10:47:26;13.23;;;12.00;;
10116;SDS011;5098;48.792;9.012;2022-08-19T10:49:53;13.87;;;12.47;;
10116;SDS011;5098;48.792;9.012;2022-08-19T10:52:42;12.63;;;11.43;;
10116;SDS011;5098;48.792;9.012;2022-08-19T10:55:08;12.53;;;11.43;;
10116;SDS011;5098;48.792;9.012;2022-08-19T10:57:53;12.47;;;11.27;;
10116;SDS011;5098;48.792;9.012;2022-08-19T11:00:20;12.80;;;11.63;;
10116;SDS011;5098;48.792;9.012;2022-08-19T11:02:48;11.47;;;10.57;;
10116;SDS011;5098;48.792;9.012;2022-08-19T11:05:14;13.50;;;12.20;;
10116;SDS011;5098;48.792;9.012;2022-08-19T11:07:42;13.20;;;11.80;;
10116;SDS011;5098;48.792;9.012;2022-08-19T11:10:10;13.60;;;12.30;;
10116;SDS011;5098;48.792;9.012;2022-08-19T11:12:37;16.23;;;12.50;;
10116;SDS011;5098;48.792;9.012;2022-08-19T11:15:07;11.70;;;10.53;;
10116;SDS011;5098;48.792;9.012;2022-08-19T11:17:35;13.53;;;12.23;;
10116;SDS011;5098;48.792;9.012;2022-08-19T11:20:08;14.30;;;12.93;;
10116;SDS011;5098;48.792;9.012;2022-08-19T11:22:35;13.03;;;11.73;;
10116;SDS011;5098;48.792;9.012;2022-08-19T11:25:01;13.13;;;11.67;;
10116;SDS011;5098;48.792;9.012;2022-08-19T11:27:27;11.50;;;10.30;;
10116;SDS011;5098;48.792;9.012;2022-08-19T11:29:53;13.03;;;11.80;;
10116;SDS011;5098;48.792;9.012;2022-08-19T11:32:20;10.37;;;9.47;;
10116;SDS011;5098;48.792;9.012;2022-08-19T11:34:46;11.27;;;10.20;;
10116;SDS011;5098;48.792;9.012;2022-08-19T11:37:12;12.33;;;9.50;;
10116;SDS011;5098;48.792;9.012;2022-08-19T11:39:38;9.53;;;8.73;;
10116;SDS011;5098;48.792;9.012;2022-08-19T11:42:05;10.10;;;9.10;;
10116;SDS011;5098;48.792;9.012;2022-08-19T11:44:51;10.17;;;9.30;;
10116;SDS011;5098;48.792;9.012;2022-08-19T11:47:18;10.30;;;9.40;;
10116;SDS011;5098;48.792;9.012;2022-08-19T11:49:45;9.77;;;8.80;;
10116;SDS011;5098;48.792;9.012;2022-08-19T11:52:11;9.87;;;7.80;;
10116;SDS011;5098;48.792;9.012;2022-08-19T11:54:37;10.13;;;7.53;;
10116;SDS011;5098;48.792;9.012;2022-08-19T11:57:03;8.83;;;8.13;;
10116;SDS011;5098;48.792;9.012;2022-08-19T11:59:29;8.33;;;7.60;;
10116;SDS011;5098;48.792;9.012;2022-08-19T12:01:56;8.40;;;7.60;;
10116;SDS011;5098;48.792;9.012;2022-08-19T12:04:23;9.40;;;8.50;;
10116;SDS011;5098;48.792;9.012;2022-08-19T12:06:49;8.97;;;8.20;;
10116;SDS011;5098;48.792;9.012;2022-08-19T12:09:15;8.67;;;7.90;;
10116;SDS011;5098;48.792;9.012;2022-08-19T12:11:42;8.97;;;8.10;;
10116;SDS011;5098;48.792;9.012;2022-08-19T12:14:10;10.40;;;9.63;;
10116;SDS011;5098;48.792;9.012;2022-08-19T12:16:36;8.90;;;8.10;;
10116;SDS011;5098;48.792;9.012;2022-08-19T12:19:04;9.23;;;8.27;;
10116;SDS011;5098;48.792;9.012;2022-08-19T12:21:31;8.33;;;7.53;;
10116;SDS011;5098;48.792;9.012;2022-08-19T12:23:57;8.23;;;7.37;;
10116;SDS011;5098;48.792;9.012;2022-08-19T12:26:24;7.67;;;6.90;;
10116;SDS011;5098;48.792;9.012;2022-08-19T12:28:51;9.50;;;7.30;;
10116;SDS011;5098;48.792;9.012;2022-08-19T12:31:17;8.40;;;7.63;;
10116;SDS011;5098;48.792;9.012;2022-08-19T12:33:44;7.47;;;6.87;;
10116;SDS011;5098;48.792;9.012;2022-08-19T12:36:12;7.73;;;6.93;;
10116;SDS011;5098;48.792;9.012;2022-08-19T12:38:38;7.07;;;6.53;;
10116;SDS011;5098;48.792;9.012;2022-08-19T12:41:05;7.53;;;6.83;;
10116;SDS011;5098;48.792;9.012;2022-08-19T12:43:34;8.47;;;7.67;;
10116;SDS011;5098;48.792;9.012;2022-08-19T12:46:01;7.83;;;7.23;;
10116;SDS011;5098;48.792;9.012;2022-08-19T12:48:29;7.97;;;7.23;;
10116;SDS011;5098;48.792;9.012;2022-08-19T12:50:55;8.33;;;7.60;;
10116;SDS011;5098;48.792;9.012;2022-08-19T12:53:21;7.90;;;7.17;;
10116;SDS011;5098;48.792;9.012;2022-08-19T12:55:53;8.90;;;8.00;;
10116;SDS011;5098;48.792;9.012;2022-08-19T12:58:20;9.60;;;8.60;;
10116;SDS011;5098;48.792;9.012;2022-08-19T13:00:47;8.83;;;7.63;;
10116;SDS011;5098;48.792;9.012;2022-08-19T13:03:14;8.57;;;7.87;;
10116;SDS011;5098;48.792;9.012;2022-08-19T13:05:40;9.57;;;8.77;;
10116;SDS011;5098;48.792;9.012;2022-08-19T13:08:07;9.10;;;8.20;;
10116;SDS011;5098;48.792;9.012;2022-08-19T13:10:34;8.63;;;7.97;;
10116;SDS011;5098;48.792;9.012;2022-08-19T13:13:04;10.40;;;8.10;;
10116;SDS011;5098;48.792;9.012;2022-08-19T13:15:33;8.97;;;8.20;;
10116;SDS011;5098;48.792;9.012;2022-08-19T13:17:59;8.70;;;8.00;;
10116;SDS011;5098;48.792;9.012;2022-08-19T13:20:25;8.33;;;7.73;;
10116;SDS011;5098;48.792;9.012;2022-08-19T13:22:52;8.80;;;8.10;;
10116;SDS011;5098;48.792;9.012;2022-08-19T13:25:18;8.50;;;7.73;;
10116;SDS011;5098;48.792;9.012;2022-08-19T13:27:45;8.80;;;7.90;;
10116;SDS011;5098;48.792;9.012;2022-08-19T13:30:12;8.00;;;7.23;;
10116;SDS011;5098;48.792;9.012;2022-08-19T13:32:58;8.83;;;8.03;;
10116;SDS011;5098;48.792;9.012;2022-08-19T13:35:40;8.50;;;7.70;;
10116;SDS011;5098;48.792;9.012;2022-08-19T13:38:07;8.57;;;7.87;;
10116;SDS011;5098;48.792;9.012;2022-08-19T13:40:34;8.40;;;7.53;;
10116;SDS011;5098;48.792;9.012;2022-08-19T13:43:00;10.40;;;7.87;;
10116;SDS011;5098;48.792;9.012;2022-08-19T13:45:27;9.23;;;8.43;;
10116;SDS011;5098;48.792;9.012;2022-08-19T13:47:54;9.33;;;8.53;;
10116;SDS011;5098;48.792;9.012;2022-08-19T13:50:25;8.93;;;8.23;;
10116;SDS011;5098;48.792;9.012;2022-08-19T13:52:56;8.97;;;8.17;;
10116;SDS011;5098;48.792;9.012;2022-08-19T13:55:22;9.43;;;8.47;;
10116;SDS011;5098;48.792;9.012;2022-08-19T13:57:52;8.40;;;7.70;;
10116;SDS011;5098;48.792;9.012;2022-08-19T14:00:18;8.73;;;7.93;;
10116;SDS011;5098;48.792;9.012;2022-08-19T14:02:45;13.70;;;8.73;;
10116;SDS011;5098;48.792;9.012;2022-08-19T14:05:14;9.20;;;8.50;;
10116;SDS011;5098;48.792;9.012;2022-08-19T14:07:41;10.40;;;9.33;;
10116;SDS011;5098;48.792;9.012;2022-08-19T14:10:08;9.60;;;8.83;;
10116;SDS011;5098;48.792;9.012;2022-08-19T14:12:34;10.70;;;9.80;;
10116;SDS011;5098;48.792;9.012;2022-08-19T14:15:02;10.30;;;9.50;;
10116;SDS011;5098;48.792;9.012;2022-08-19T14:17:28;9.80;;;9.00;;
10116;SDS011;5098;48.792;9.012;2022-08-19T14:19:58;11.20;;;10.20;;
10116;SDS011;5098;48.792;9.012;2022-08-19T14:22:28;9.00;;;8.40;;
10116;SDS011;5098;48.792;9.012;2022-08-19T14:24:56;10.40;;;9.60;;
10116;SDS011;5098;48.792;9.012;2022-08-19T14:27:22;10.00;;;9.10;;
10116;SDS011;5098;48.792;9.012;2022-08-19T14:29:50;9.67;;;8.33;;
10116;SDS011;5098;48.792;9.012;2022-08-19T14:32:16;9.13;;;8.40;;
10116;SDS011;5098;48.792;9.012;2022-08-19T14:34:43;10.40;;;9.50;;
10116;SDS011;5098;48.792;9.012;2022-08-19T14:37:10;9.43;;;8.73;;
10116;SDS011;5098;48.792;9.012;2022-08-19T14:39:36;9.20;;;8.53;;
10116;SDS011;5098;48.792;9.012;2022-08-19T14:42:06;9.83;;;9.10;;
10116;SDS011;5098;48.792;9.012;2022-08-19T14:44:33;9.50;;;8.60;;
10116;SDS011;5098;48.792;9.012;2022-08-19T14:46:59;9.23;;;8.53;;
10116;SDS011;5098;48.792;9.012;2022-08-19T14:49:25;9.60;;;8.80;;
10116;SDS011;5098;48.792;9.012;2022-08-19T14:51:51;8.87;;;8.17;;
10116;SDS011;5098;48.792;9.012;2022-08-19T14:54:17;9.57;;;8.67;;
10116;SDS011;5098;48.792;9.012;2022-08-19T14:56:43;9.60;;;9.00;;